sensor_id;sensor_type;location;lat;lon;timestamp;temperature;humidity
10566;DHT22;5331;48.148;16.326;2023-07-31T00:00:06;19.00;1.00
10566;DHT22;5331;48.148;16.326;2023-07-31T00:02:34;19.00;1.00
10566;DHT22;5331;48.148;16.326;2023-07-31T00:05:01;19.00;1.00
10566;DHT22;5331;48.148;16.326;2023-07-31T00:07:30;19.00;1.00
10566;DHT22;5331;48.148;16.326;2023-07-31T00:09:57;18.90;1.00
10566;DHT22;5331;48.148;16.326;2023-07-31T00:12:24;18.90;1.00
10566;DHT22;5331;48.148;16.326;2023-07-31T00:14:51;18.90;1.00
10566;DHT22;5331;48.148;16.326;2023-07-31T00:17:18;18.80;1.00
10566;DHT22;5331;48.148;16.326;2023-07-31T00:19:45;18.90;1.00
10566;DHT22;5331;48.148;16.326;2023-07-31T00:22:14;18.80;1.00
10566;DHT22;5331;48.148;16.326;2023-07-31T00:24:43;18.70;1.00
10566;DHT22;5331;48.148;16.326;2023-07-31T00:27:10;18.60;1.00
10566;DHT22;5331;48.148;16.326;2023-07-31T00:29:36;18.60;1.00
10566;DHT22;5331;48.148;16.326;2023-07-31T00:32:04;18.60;1.00
10566;DHT22;5331;48.148;16.326;2023-07-31T00:34:31;18.60;1.00
10566;DHT22;5331;48.148;16.326;2023-07-31T00:36:58;18.60;1.00
10566;DHT22;5331;48.148;16.326;2023-07-31T00:39:25;18.60;1.00
10566;DHT22;5331;48.148;16.326;2023-07-31T00:41:53;18.50;1.00
10566;DHT22;5331;48.148;16.326;2023-07-31T00:44:20;18.50;1.00
10566;DHT22;5331;48.148;16.326;2023-07-31T00:46:47;18.40;1.00
10566;DHT22;5331;48.148;16.326;2023-07-31T00:49:14;18.40;1.00
10566;DHT22;5331;48.148;16.326;2023-07-31T00:51:41;18.40;1.00
10566;DHT22;5331;48.148;16.326;2023-07-31T00:54:09;18.40;1.00
10566;DHT22;5331;48.148;16.326;2023-07-31T00:56:38;18.40;1.00
10566;DHT22;5331;48.148;16.326;2023-07-31T00:59:06;18.40;1.00
10566;DHT22;5331;48.148;16.326;2023-07-31T01:01:33;18.40;1.00
10566;DHT22;5331;48.148;16.326;2023-07-31T01:04:00;18.40;1.00
10566;DHT22;5331;48.148;16.326;2023-07-31T01:06:33;18.30;1.00
10566;DHT22;5331;48.148;16.326;2023-07-31T01:09:04;18.30;1.00
10566;DHT22;5331;48.148;16.326;2023-07-31T01:11:34;18.30;1.00
10566;DHT22;5331;48.148;16.326;2023-07-31T01:14:06;18.30;1.00
10566;DHT22;5331;48.148;16.326;2023-07-31T01:16:33;18.20;1.00
10566;DHT22;5331;48.148;16.326;2023-07-31T01:19:00;18.20;1.00
10566;DHT22;5331;48.148;16.326;2023-07-31T01:21:49;18.10;1.00
10566;DHT22;5331;48.148;16.326;2023-07-31T01:24:23;18.10;1.00
10566;DHT22;5331;48.148;16.326;2023-07-31T01:26:57;18.00;1.00
10566;DHT22;5331;48.148;16.326;2023-07-31T01:29:34;18.00;1.00
10566;DHT22;5331;48.148;16.326;2023-07-31T01:32:05;17.90;1.00
10566;DHT22;5331;48.148;16.326;2023-07-31T01:34:33;17.80;1.00
10566;DHT22;5331;48.148;16.326;2023-07-31T01:37:00;17.80;1.00
10566;DHT22;5331;48.148;16.326;2023-07-31T01:39:27;17.80;1.00
10566;DHT22;5331;48.148;16.326;2023-07-31T01:41:55;17.80;1.00
10566;DHT22;5331;48.148;16.326;2023-07-31T01:44:22;17.80;1.00
10566;DHT22;5331;48.148;16.326;2023-07-31T01:46:49;17.70;1.00
10566;DHT22;5331;48.148;16.326;2023-07-31T01:49:16;17.80;1.00
10566;DHT22;5331;48.148;16.326;2023-07-31T01:51:43;17.80;1.00
10566;DHT22;5331;48.148;16.326;2023-07-31T01:54:10;17.90;1.00
10566;DHT22;5331;48.148;16.326;2023-07-31T01:56:36;18.00;1.00
10566;DHT22;5331;48.148;16.326;2023-07-31T01:59:05;17.90;1.00
10566;DHT22;5331;48.148;16.326;2023-07-31T02:01:32;17.90;1.00
10566;DHT22;5331;48.148;16.326;2023-07-31T02:03:58;17.80;1.00
10566;DHT22;5331;48.148;16.326;2023-07-31T02:06:25;17.70;1.00
10566;DHT22;5331;48.148;16.326;2023-07-31T02:08:52;17.80;1.00
10566;DHT22;5331;48.148;16.326;2023-07-31T02:11:19;17.70;1.00
10566;DHT22;5331;48.148;16.326;2023-07-31T02:13:46;17.70;1.00
10566;DHT22;5331;48.148;16.326;2023-07-31T02:16:14;17.70;1.00
10566;DHT22;5331;48.148;16.326;2023-07-31T02:18:41;17.60;1.00
10566;DHT22;5331;48.148;16.326;2023-07-31T02:21:08;17.60;1.00
10566;DHT22;5331;48.148;16.326;2023-07-31T02:23:35;17.60;1.00
10566;DHT22;5331;48.148;16.326;2023-07-31T02:26:02;17.50;1.00
10566;DHT22;5331;48.148;16.326;2023-07-31T02:28:29;17.60;1.00
10566;DHT22;5331;48.148;16.326;2023-07-31T02:30:56;17.60;1.00
10566;DHT22;5331;48.148;16.326;2023-07-31T02:33:24;17.50;1.00
10566;DHT22;5331;48.148;16.326;2023-07-31T02:35:51;17.60;1.00
10566;DHT22;5331;48.148;16.326;2023-07-31T02:38:18;17.50;1.00
10566;DHT22;5331;48.148;16.326;2023-07-31T02:40:45;17.50;1.00
10566;DHT22;5331;48.148;16.326;2023-07-31T02:43:12;17.50;1.00
10566;DHT22;5331;48.148;16.326;2023-07-31T02:45:39;17.50;1.00
10566;DHT22;5331;48.148;16.326;2023-07-31T02:48:05;17.50;1.00
10566;DHT22;5331;48.148;16.326;2023-07-31T02:50:34;17.50;1.00
10566;DHT22;5331;48.148;16.326;2023-07-31T02:53:01;17.50;1.00
10566;DHT22;5331;48.148;16.326;2023-07-31T02:55:28;17.50;1.00
10566;DHT22;5331;48.148;16.326;2023-07-31T02:57:57;17.50;1.00
10566;DHT22;5331;48.148;16.326;2023-07-31T03:00:24;17.50;1.00
10566;DHT22;5331;48.148;16.326;2023-07-31T03:02:51;17.50;1.00
10566;DHT22;5331;48.148;16.326;2023-07-31T03:05:18;17.50;1.00
10566;DHT22;5331;48.148;16.326;2023-07-31T03:07:46;17.40;1.00
10566;DHT22;5331;48.148;16.326;2023-07-31T03:10:14;17.40;1.00
10566;DHT22;5331;48.148;16.326;2023-07-31T03:12:41;17.40;1.00
10566;DHT22;5331;48.148;16.326;2023-07-31T03:15:09;17.40;1.00
10566;DHT22;5331;48.148;16.326;2023-07-31T03:17:36;17.40;1.00
10566;DHT22;5331;48.148;16.326;2023-07-31T03:20:03;17.40;1.00
10566;DHT22;5331;48.148;16.326;2023-07-31T03:22:30;17.40;1.00
10566;DHT22;5331;48.148;16.326;2023-07-31T03:24:59;17.40;1.00
10566;DHT22;5331;48.148;16.326;2023-07-31T03:27:25;17.40;1.00
10566;DHT22;5331;48.148;16.326;2023-07-31T03:29:52;17.40;1.00
10566;DHT22;5331;48.148;16.326;2023-07-31T03:32:19;17.30;1.00
10566;DHT22;5331;48.148;16.326;2023-07-31T03:34:46;17.30;1.00
10566;DHT22;5331;48.148;16.326;2023-07-31T03:37:13;17.30;1.00
10566;DHT22;5331;48.148;16.326;2023-07-31T03:39:40;17.30;1.00
10566;DHT22;5331;48.148;16.326;2023-07-31T03:42:08;17.30;1.00
10566;DHT22;5331;48.148;16.326;2023-07-31T03:44:35;17.40;1.00
10566;DHT22;5331;48.148;16.326;2023-07-31T03:47:01;17.50;1.00
10566;DHT22;5331;48.148;16.326;2023-07-31T03:49:28;17.50;1.00
10566;DHT22;5331;48.148;16.326;2023-07-31T03:51:55;17.50;1.00
10566;DHT22;5331;48.148;16.326;2023-07-31T03:54:22;17.50;1.00
10566;DHT22;5331;48.148;16.326;2023-07-31T03:56:49;17.60;1.00
10566;DHT22;5331;48.148;16.326;2023-07-31T03:59:17;17.60;1.00
10566;DHT22;5331;48.148;16.326;2023-07-31T04:01:44;17.70;1.00
10566;DHT22;5331;48.148;16.326;2023-07-31T04:04:11;17.70;1.00
10566;DHT22;5331;48.148;16.326;2023-07-31T04:06:38;17.80;1.00
10566;DHT22;5331;48.148;16.326;2023-07-31T04:09:05;17.90;1.00
10566;DHT22;5331;48.148;16.326;2023-07-31T04:11:32;18.00;1.00
10566;DHT22;5331;48.148;16.326;2023-07-31T04:13:59;18.00;1.00
10566;DHT22;5331;48.148;16.326;2023-07-31T04:16:27;18.00;1.00
10566;DHT22;5331;48.148;16.326;2023-07-31T04:18:54;18.00;1.00
10566;DHT22;5331;48.148;16.326;2023-07-31T04:21:21;18.10;1.00
10566;DHT22;5331;48.148;16.326;2023-07-31T04:23:47;18.20;1.00
10566;DHT22;5331;48.148;16.326;2023-07-31T04:26:14;18.20;1.00
10566;DHT22;5331;48.148;16.326;2023-07-31T04:28:41;18.30;1.00
10566;DHT22;5331;48.148;16.326;2023-07-31T04:31:08;18.20;1.00
10566;DHT22;5331;48.148;16.326;2023-07-31T04:33:36;18.30;1.00
10566;DHT22;5331;48.148;16.326;2023-07-31T04:36:04;18.40;1.00
10566;DHT22;5331;48.148;16.326;2023-07-31T04:38:31;18.40;1.00
10566;DHT22;5331;48.148;16.326;2023-07-31T04:40:58;18.50;1.00
10566;DHT22;5331;48.148;16.326;2023-07-31T04:43:25;18.40;1.00
10566;DHT22;5331;48.148;16.326;2023-07-31T04:45:52;18.50;1.00
10566;DHT22;5331;48.148;16.326;2023-07-31T04:48:19;18.50;1.00
10566;DHT22;5331;48.148;16.326;2023-07-31T04:50:47;18.50;1.00
10566;DHT22;5331;48.148;16.326;2023-07-31T04:53:14;18.60;1.00
10566;DHT22;5331;48.148;16.326;2023-07-31T04:55:41;18.60;1.00
10566;DHT22;5331;48.148;16.326;2023-07-31T04:58:09;18.60;1.00
10566;DHT22;5331;48.148;16.326;2023-07-31T05:00:36;18.70;1.00
10566;DHT22;5331;48.148;16.326;2023-07-31T05:03:03;18.70;1.00
10566;DHT22;5331;48.148;16.326;2023-07-31T05:05:30;18.80;1.00
10566;DHT22;5331;48.148;16.326;2023-07-31T05:07:59;18.80;1.00
10566;DHT22;5331;48.148;16.326;2023-07-31T05:10:27;18.90;1.00
10566;DHT22;5331;48.148;16.326;2023-07-31T05:12:55;19.00;1.00
10566;DHT22;5331;48.148;16.326;2023-07-31T05:15:22;19.00;1.00
10566;DHT22;5331;48.148;16.326;2023-07-31T05:17:49;19.10;1.00
10566;DHT22;5331;48.148;16.326;2023-07-31T05:20:16;19.20;1.00
10566;DHT22;5331;48.148;16.326;2023-07-31T05:22:45;19.30;1.00
10566;DHT22;5331;48.148;16.326;2023-07-31T05:25:15;19.40;1.00
10566;DHT22;5331;48.148;16.326;2023-07-31T05:27:42;19.40;1.00
10566;DHT22;5331;48.148;16.326;2023-07-31T05:30:09;19.50;1.00
10566;DHT22;5331;48.148;16.326;2023-07-31T05:32:36;19.50;1.00
10566;DHT22;5331;48.148;16.326;2023-07-31T05:35:04;19.50;1.00
10566;DHT22;5331;48.148;16.326;2023-07-31T05:37:31;19.60;1.00
10566;DHT22;5331;48.148;16.326;2023-07-31T05:39:58;19.60;1.00
10566;DHT22;5331;48.148;16.326;2023-07-31T05:42:26;19.70;1.00
10566;DHT22;5331;48.148;16.326;2023-07-31T05:44:53;19.80;1.00
10566;DHT22;5331;48.148;16.326;2023-07-31T05:47:20;19.80;1.00
10566;DHT22;5331;48.148;16.326;2023-07-31T05:49:48;19.80;1.00
10566;DHT22;5331;48.148;16.326;2023-07-31T05:52:14;19.90;1.00
10566;DHT22;5331;48.148;16.326;2023-07-31T05:54:42;20.00;1.00
10566;DHT22;5331;48.148;16.326;2023-07-31T05:57:09;20.10;1.00
10566;DHT22;5331;48.148;16.326;2023-07-31T05:59:37;20.20;1.00
10566;DHT22;5331;48.148;16.326;2023-07-31T06:02:04;20.30;1.00
10566;DHT22;5331;48.148;16.326;2023-07-31T06:04:31;20.40;1.00
10566;DHT22;5331;48.148;16.326;2023-07-31T06:06:58;20.70;1.00
10566;DHT22;5331;48.148;16.326;2023-07-31T06:09:26;20.70;1.00
10566;DHT22;5331;48.148;16.326;2023-07-31T06:11:53;20.90;1.00
10566;DHT22;5331;48.148;16.326;2023-07-31T06:14:20;21.20;1.00
10566;DHT22;5331;48.148;16.326;2023-07-31T06:16:48;21.50;1.00
10566;DHT22;5331;48.148;16.326;2023-07-31T06:19:15;21.70;1.00
10566;DHT22;5331;48.148;16.326;2023-07-31T06:21:42;21.90;1.00
10566;DHT22;5331;48.148;16.326;2023-07-31T06:24:10;22.00;1.00
10566;DHT22;5331;48.148;16.326;2023-07-31T06:26:37;22.40;1.00
10566;DHT22;5331;48.148;16.326;2023-07-31T06:29:04;22.40;1.00
10566;DHT22;5331;48.148;16.326;2023-07-31T06:31:31;22.70;1.00
10566;DHT22;5331;48.148;16.326;2023-07-31T06:34:00;22.90;1.00
10566;DHT22;5331;48.148;16.326;2023-07-31T06:36:27;22.90;1.00
10566;DHT22;5331;48.148;16.326;2023-07-31T06:38:53;23.00;1.00
10566;DHT22;5331;48.148;16.326;2023-07-31T06:41:21;23.00;1.00
10566;DHT22;5331;48.148;16.326;2023-07-31T06:43:47;23.00;1.00
10566;DHT22;5331;48.148;16.326;2023-07-31T06:46:17;23.20;1.00
10566;DHT22;5331;48.148;16.326;2023-07-31T06:48:44;23.40;1.00
10566;DHT22;5331;48.148;16.326;2023-07-31T06:51:12;23.90;1.00
10566;DHT22;5331;48.148;16.326;2023-07-31T06:53:40;24.00;1.00
10566;DHT22;5331;48.148;16.326;2023-07-31T06:56:06;24.40;1.00
10566;DHT22;5331;48.148;16.326;2023-07-31T06:58:33;24.40;1.00
10566;DHT22;5331;48.148;16.326;2023-07-31T07:01:00;25.00;1.00
10566;DHT22;5331;48.148;16.326;2023-07-31T07:03:27;25.20;1.00
10566;DHT22;5331;48.148;16.326;2023-07-31T07:05:54;25.10;1.00
10566;DHT22;5331;48.148;16.326;2023-07-31T07:08:24;25.30;1.00
10566;DHT22;5331;48.148;16.326;2023-07-31T07:10:51;25.50;1.00
10566;DHT22;5331;48.148;16.326;2023-07-31T07:13:17;25.50;1.00
10566;DHT22;5331;48.148;16.326;2023-07-31T07:15:48;25.50;1.00
10566;DHT22;5331;48.148;16.326;2023-07-31T07:18:15;25.50;1.00
10566;DHT22;5331;48.148;16.326;2023-07-31T07:20:46;25.60;1.00
10566;DHT22;5331;48.148;16.326;2023-07-31T07:23:14;25.70;1.00
10566;DHT22;5331;48.148;16.326;2023-07-31T07:25:42;25.70;1.00
10566;DHT22;5331;48.148;16.326;2023-07-31T07:28:09;25.40;1.00
10566;DHT22;5331;48.148;16.326;2023-07-31T07:30:36;25.50;1.00
10566;DHT22;5331;48.148;16.326;2023-07-31T07:33:02;25.40;1.00
10566;DHT22;5331;48.148;16.326;2023-07-31T07:35:33;25.50;1.00
10566;DHT22;5331;48.148;16.326;2023-07-31T07:38:00;25.40;1.00
10566;DHT22;5331;48.148;16.326;2023-07-31T07:40:27;25.30;1.00
10566;DHT22;5331;48.148;16.326;2023-07-31T07:42:55;25.60;1.00
10566;DHT22;5331;48.148;16.326;2023-07-31T07:45:22;25.60;1.00
10566;DHT22;5331;48.148;16.326;2023-07-31T07:47:49;25.50;1.00
10566;DHT22;5331;48.148;16.326;2023-07-31T07:50:16;25.50;1.00
10566;DHT22;5331;48.148;16.326;2023-07-31T07:52:43;25.20;1.00
10566;DHT22;5331;48.148;16.326;2023-07-31T07:55:10;24.80;1.00
10566;DHT22;5331;48.148;16.326;2023-07-31T07:57:37;24.60;1.00
10566;DHT22;5331;48.148;16.326;2023-07-31T08:00:07;24.90;1.00
10566;DHT22;5331;48.148;16.326;2023-07-31T08:02:36;24.70;1.00
10566;DHT22;5331;48.148;16.326;2023-07-31T08:05:03;24.30;1.00
10566;DHT22;5331;48.148;16.326;2023-07-31T08:07:29;24.10;1.00
10566;DHT22;5331;48.148;16.326;2023-07-31T08:09:56;24.10;1.00
10566;DHT22;5331;48.148;16.326;2023-07-31T08:12:23;24.20;1.00
10566;DHT22;5331;48.148;16.326;2023-07-31T08:14:50;24.10;1.00
10566;DHT22;5331;48.148;16.326;2023-07-31T08:17:18;24.10;1.00
10566;DHT22;5331;48.148;16.326;2023-07-31T08:19:45;24.50;1.00
10566;DHT22;5331;48.148;16.326;2023-07-31T08:22:12;24.90;1.00
10566;DHT22;5331;48.148;16.326;2023-07-31T08:24:40;25.30;1.00
10566;DHT22;5331;48.148;16.326;2023-07-31T08:27:06;25.60;1.00
10566;DHT22;5331;48.148;16.326;2023-07-31T08:29:33;25.80;1.00
10566;DHT22;5331;48.148;16.326;2023-07-31T08:32:00;26.10;1.00
10566;DHT22;5331;48.148;16.326;2023-07-31T08:34:29;26.30;1.00
10566;DHT22;5331;48.148;16.326;2023-07-31T08:36:56;26.20;1.00
10566;DHT22;5331;48.148;16.326;2023-07-31T08:39:22;26.30;1.00
10566;DHT22;5331;48.148;16.326;2023-07-31T08:41:49;26.40;1.00
10566;DHT22;5331;48.148;16.326;2023-07-31T08:44:17;26.70;1.00
10566;DHT22;5331;48.148;16.326;2023-07-31T08:46:45;27.10;1.00
10566;DHT22;5331;48.148;16.326;2023-07-31T08:49:13;27.20;1.00
10566;DHT22;5331;48.148;16.326;2023-07-31T08:51:41;27.00;1.00
10566;DHT22;5331;48.148;16.326;2023-07-31T08:54:08;27.00;1.00
10566;DHT22;5331;48.148;16.326;2023-07-31T08:56:36;26.80;1.00
10566;DHT22;5331;48.148;16.326;2023-07-31T08:59:04;26.80;1.00
10566;DHT22;5331;48.148;16.326;2023-07-31T09:01:35;26.70;1.00
10566;DHT22;5331;48.148;16.326;2023-07-31T09:04:04;26.80;1.00
10566;DHT22;5331;48.148;16.326;2023-07-31T09:06:32;27.10;1.00
10566;DHT22;5331;48.148;16.326;2023-07-31T09:09:01;26.80;1.00
10566;DHT22;5331;48.148;16.326;2023-07-31T09:11:28;26.70;1.00
10566;DHT22;5331;48.148;16.326;2023-07-31T09:13:57;26.50;1.00
10566;DHT22;5331;48.148;16.326;2023-07-31T09:16:28;26.70;1.00
10566;DHT22;5331;48.148;16.326;2023-07-31T09:18:57;26.70;1.00
10566;DHT22;5331;48.148;16.326;2023-07-31T09:21:27;26.70;1.00
10566;DHT22;5331;48.148;16.326;2023-07-31T09:23:54;26.80;1.00
10566;DHT22;5331;48.148;16.326;2023-07-31T09:26:34;26.90;1.00
10566;DHT22;5331;48.148;16.326;2023-07-31T09:29:03;26.70;1.00
10566;DHT22;5331;48.148;16.326;2023-07-31T09:31:39;26.90;1.00
10566;DHT22;5331;48.148;16.326;2023-07-31T09:34:06;27.20;1.00
10566;DHT22;5331;48.148;16.326;2023-07-31T09:36:40;27.20;1.00
10566;DHT22;5331;48.148;16.326;2023-07-31T09:39:09;27.40;1.00
10566;DHT22;5331;48.148;16.326;2023-07-31T09:41:38;27.60;1.00
10566;DHT22;5331;48.148;16.326;2023-07-31T09:44:06;27.50;1.00
10566;DHT22;5331;48.148;16.326;2023-07-31T09:46:35;27.80;1.00
10566;DHT22;5331;48.148;16.326;2023-07-31T09:49:09;27.80;1.00
10566;DHT22;5331;48.148;16.326;2023-07-31T09:51:36;27.80;1.00
10566;DHT22;5331;48.148;16.326;2023-07-31T09:54:09;27.60;1.00
10566;DHT22;5331;48.148;16.326;2023-07-31T09:56:42;27.60;1.00
10566;DHT22;5331;48.148;16.326;2023-07-31T09:59:12;27.70;1.00
10566;DHT22;5331;48.148;16.326;2023-07-31T10:01:40;28.00;1.00
10566;DHT22;5331;48.148;16.326;2023-07-31T10:04:08;28.30;1.00
10566;DHT22;5331;48.148;16.326;2023-07-31T10:06:36;28.30;1.00
10566;DHT22;5331;48.148;16.326;2023-07-31T10:09:08;28.10;1.00
10566;DHT22;5331;48.148;16.326;2023-07-31T10:11:41;28.20;1.00
10566;DHT22;5331;48.148;16.326;2023-07-31T10:14:09;28.20;1.00
10566;DHT22;5331;48.148;16.326;2023-07-31T10:16:38;28.20;1.00
10566;DHT22;5331;48.148;16.326;2023-07-31T10:19:06;28.10;1.00
10566;DHT22;5331;48.148;16.326;2023-07-31T10:21:34;28.10;1.00
10566;DHT22;5331;48.148;16.326;2023-07-31T10:24:03;28.10;1.00
10566;DHT22;5331;48.148;16.326;2023-07-31T10:26:31;28.00;1.00
10566;DHT22;5331;48.148;16.326;2023-07-31T10:29:00;28.30;1.00
10566;DHT22;5331;48.148;16.326;2023-07-31T10:31:28;28.20;1.00
10566;DHT22;5331;48.148;16.326;2023-07-31T10:33:56;28.20;1.00
10566;DHT22;5331;48.148;16.326;2023-07-31T10:36:23;28.30;1.00
10566;DHT22;5331;48.148;16.326;2023-07-31T10:38:51;28.40;1.00
10566;DHT22;5331;48.148;16.326;2023-07-31T10:41:18;28.40;1.00
10566;DHT22;5331;48.148;16.326;2023-07-31T10:43:46;28.60;1.00
10566;DHT22;5331;48.148;16.326;2023-07-31T10:46:14;28.70;1.00
10566;DHT22;5331;48.148;16.326;2023-07-31T10:48:42;28.70;1.00
10566;DHT22;5331;48.148;16.326;2023-07-31T10:51:10;28.90;1.00
10566;DHT22;5331;48.148;16.326;2023-07-31T10:53:38;28.90;1.00
10566;DHT22;5331;48.148;16.326;2023-07-31T10:56:06;28.70;1.00
10566;DHT22;5331;48.148;16.326;2023-07-31T10:58:34;28.80;1.00
10566;DHT22;5331;48.148;16.326;2023-07-31T11:01:02;28.80;1.00
10566;DHT22;5331;48.148;16.326;2023-07-31T11:03:45;28.80;1.00
10566;DHT22;5331;48.148;16.326;2023-07-31T11:06:12;29.00;1.00
10566;DHT22;5331;48.148;16.326;2023-07-31T11:08:44;29.00;1.00
10566;DHT22;5331;48.148;16.326;2023-07-31T11:11:12;29.00;1.00
10566;DHT22;5331;48.148;16.326;2023-07-31T11:13:41;29.10;1.00
10566;DHT22;5331;48.148;16.326;2023-07-31T11:16:09;29.20;1.00
10566;DHT22;5331;48.148;16.326;2023-07-31T11:18:39;28.70;1.00
10566;DHT22;5331;48.148;16.326;2023-07-31T11:21:08;28.90;1.00
10566;DHT22;5331;48.148;16.326;2023-07-31T11:23:37;28.70;1.00
10566;DHT22;5331;48.148;16.326;2023-07-31T11:26:05;28.70;1.00
10566;DHT22;5331;48.148;16.326;2023-07-31T11:28:34;28.40;1.00
10566;DHT22;5331;48.148;16.326;2023-07-31T11:31:02;28.50;1.00
10566;DHT22;5331;48.148;16.326;2023-07-31T11:33:29;28.50;1.00
10566;DHT22;5331;48.148;16.326;2023-07-31T11:35:58;28.80;1.00
10566;DHT22;5331;48.148;16.326;2023-07-31T11:38:28;28.80;1.00
10566;DHT22;5331;48.148;16.326;2023-07-31T11:40:56;29.00;1.00
10566;DHT22;5331;48.148;16.326;2023-07-31T11:43:24;29.20;1.00
10566;DHT22;5331;48.148;16.326;2023-07-31T11:45:53;29.20;1.00
10566;DHT22;5331;48.148;16.326;2023-07-31T11:48:22;29.30;1.00
10566;DHT22;5331;48.148;16.326;2023-07-31T11:50:50;29.60;1.00
10566;DHT22;5331;48.148;16.326;2023-07-31T11:53:22;29.70;1.00
10566;DHT22;5331;48.148;16.326;2023-07-31T11:55:52;29.70;1.00
10566;DHT22;5331;48.148;16.326;2023-07-31T11:58:20;29.70;1.00
10566;DHT22;5331;48.148;16.326;2023-07-31T12:00:47;29.50;1.00
10566;DHT22;5331;48.148;16.326;2023-07-31T12:03:15;29.30;1.00
10566;DHT22;5331;48.148;16.326;2023-07-31T12:05:42;29.40;1.00
10566;DHT22;5331;48.148;16.326;2023-07-31T12:08:10;29.40;1.00
10566;DHT22;5331;48.148;16.326;2023-07-31T12:10:37;29.40;1.00
10566;DHT22;5331;48.148;16.326;2023-07-31T12:13:08;29.50;1.00
10566;DHT22;5331;48.148;16.326;2023-07-31T12:15:40;29.50;1.00
10566;DHT22;5331;48.148;16.326;2023-07-31T12:18:09;29.60;1.00
10566;DHT22;5331;48.148;16.326;2023-07-31T12:20:41;29.80;1.00
10566;DHT22;5331;48.148;16.326;2023-07-31T12:23:13;29.90;1.00
10566;DHT22;5331;48.148;16.326;2023-07-31T12:25:40;29.80;1.00
10566;DHT22;5331;48.148;16.326;2023-07-31T12:28:10;30.00;1.00
10566;DHT22;5331;48.148;16.326;2023-07-31T12:30:40;29.90;1.00
10566;DHT22;5331;48.148;16.326;2023-07-31T12:33:13;29.90;1.00
10566;DHT22;5331;48.148;16.326;2023-07-31T12:35:44;30.00;1.00
10566;DHT22;5331;48.148;16.326;2023-07-31T12:38:11;30.10;1.00
10566;DHT22;5331;48.148;16.326;2023-07-31T12:40:39;30.20;1.00
10566;DHT22;5331;48.148;16.326;2023-07-31T12:43:06;30.30;1.00
10566;DHT22;5331;48.148;16.326;2023-07-31T12:45:35;30.20;1.00
10566;DHT22;5331;48.148;16.326;2023-07-31T12:48:02;30.20;1.00
10566;DHT22;5331;48.148;16.326;2023-07-31T12:50:29;30.30;1.00
10566;DHT22;5331;48.148;16.326;2023-07-31T12:52:56;30.40;1.00
10566;DHT22;5331;48.148;16.326;2023-07-31T12:55:23;30.30;1.00
10566;DHT22;5331;48.148;16.326;2023-07-31T12:57:50;30.30;1.00
10566;DHT22;5331;48.148;16.326;2023-07-31T13:00:17;30.30;1.00
10566;DHT22;5331;48.148;16.326;2023-07-31T13:02:45;30.20;1.00
10566;DHT22;5331;48.148;16.326;2023-07-31T13:05:12;30.20;1.00
10566;DHT22;5331;48.148;16.326;2023-07-31T13:07:40;30.10;1.00
10566;DHT22;5331;48.148;16.326;2023-07-31T13:10:08;30.10;1.00
10566;DHT22;5331;48.148;16.326;2023-07-31T13:12:35;30.10;1.00
10566;DHT22;5331;48.148;16.326;2023-07-31T13:15:04;30.20;1.00
10566;DHT22;5331;48.148;16.326;2023-07-31T13:17:31;30.30;1.00
10566;DHT22;5331;48.148;16.326;2023-07-31T13:19:59;30.30;1.00
10566;DHT22;5331;48.148;16.326;2023-07-31T13:22:27;30.30;1.00
10566;DHT22;5331;48.148;16.326;2023-07-31T13:24:54;30.50;1.00
10566;DHT22;5331;48.148;16.326;2023-07-31T13:27:21;30.40;1.00
10566;DHT22;5331;48.148;16.326;2023-07-31T13:29:49;30.20;1.00
10566;DHT22;5331;48.148;16.326;2023-07-31T13:32:16;29.90;1.00
10566;DHT22;5331;48.148;16.326;2023-07-31T13:34:43;29.90;1.00
10566;DHT22;5331;48.148;16.326;2023-07-31T13:37:12;29.70;1.00
10566;DHT22;5331;48.148;16.326;2023-07-31T13:39:39;29.60;1.00
10566;DHT22;5331;48.148;16.326;2023-07-31T13:42:07;29.60;1.00
10566;DHT22;5331;48.148;16.326;2023-07-31T13:44:34;29.70;1.00
10566;DHT22;5331;48.148;16.326;2023-07-31T13:47:01;29.90;1.00
10566;DHT22;5331;48.148;16.326;2023-07-31T13:49:30;29.80;1.00
10566;DHT22;5331;48.148;16.326;2023-07-31T13:51:57;29.70;1.00
10566;DHT22;5331;48.148;16.326;2023-07-31T13:54:25;29.70;1.00
10566;DHT22;5331;48.148;16.326;2023-07-31T13:56:52;29.70;1.00
10566;DHT22;5331;48.148;16.326;2023-07-31T13:59:20;29.70;1.00
10566;DHT22;5331;48.148;16.326;2023-07-31T14:01:47;29.80;1.00
10566;DHT22;5331;48.148;16.326;2023-07-31T14:04:14;29.70;1.00
10566;DHT22;5331;48.148;16.326;2023-07-31T14:06:41;29.50;1.00
10566;DHT22;5331;48.148;16.326;2023-07-31T14:09:08;29.60;1.00
10566;DHT22;5331;48.148;16.326;2023-07-31T14:11:36;29.40;1.00
10566;DHT22;5331;48.148;16.326;2023-07-31T14:14:03;29.00;1.00
10566;DHT22;5331;48.148;16.326;2023-07-31T14:16:30;28.80;1.00
10566;DHT22;5331;48.148;16.326;2023-07-31T14:18:57;28.60;1.00
10566;DHT22;5331;48.148;16.326;2023-07-31T14:21:24;28.60;1.00
10566;DHT22;5331;48.148;16.326;2023-07-31T14:23:51;28.50;1.00
10566;DHT22;5331;48.148;16.326;2023-07-31T14:26:18;28.40;1.00
10566;DHT22;5331;48.148;16.326;2023-07-31T14:28:47;28.00;1.00
10566;DHT22;5331;48.148;16.326;2023-07-31T14:31:28;28.00;1.00
10566;DHT22;5331;48.148;16.326;2023-07-31T14:33:59;28.00;1.00
10566;DHT22;5331;48.148;16.326;2023-07-31T14:36:28;27.90;1.00
10566;DHT22;5331;48.148;16.326;2023-07-31T14:38:56;28.00;1.00
10566;DHT22;5331;48.148;16.326;2023-07-31T14:41:24;28.60;1.00
10566;DHT22;5331;48.148;16.326;2023-07-31T14:44:07;28.60;1.00
10566;DHT22;5331;48.148;16.326;2023-07-31T14:46:35;29.00;1.00
10566;DHT22;5331;48.148;16.326;2023-07-31T14:49:03;29.30;1.00
10566;DHT22;5331;48.148;16.326;2023-07-31T14:51:30;29.40;1.00
10566;DHT22;5331;48.148;16.326;2023-07-31T14:53:58;29.20;1.00
10566;DHT22;5331;48.148;16.326;2023-07-31T14:56:26;29.20;1.00
10566;DHT22;5331;48.148;16.326;2023-07-31T14:58:53;29.30;1.00
10566;DHT22;5331;48.148;16.326;2023-07-31T15:01:27;29.40;1.00
10566;DHT22;5331;48.148;16.326;2023-07-31T15:03:57;29.40;1.00
10566;DHT22;5331;48.148;16.326;2023-07-31T15:06:25;29.40;1.00
10566;DHT22;5331;48.148;16.326;2023-07-31T15:08:52;29.40;1.00
10566;DHT22;5331;48.148;16.326;2023-07-31T15:11:21;29.20;1.00
10566;DHT22;5331;48.148;16.326;2023-07-31T15:13:48;29.20;1.00
10566;DHT22;5331;48.148;16.326;2023-07-31T15:16:16;29.30;1.00
10566;DHT22;5331;48.148;16.326;2023-07-31T15:18:45;29.00;1.00
10566;DHT22;5331;48.148;16.326;2023-07-31T15:21:13;28.40;1.00
10566;DHT22;5331;48.148;16.326;2023-07-31T15:23:40;28.30;1.00
10566;DHT22;5331;48.148;16.326;2023-07-31T15:26:07;28.40;1.00
10566;DHT22;5331;48.148;16.326;2023-07-31T15:28:35;28.60;1.00
10566;DHT22;5331;48.148;16.326;2023-07-31T15:31:05;29.00;1.00
10566;DHT22;5331;48.148;16.326;2023-07-31T15:33:32;29.00;1.00
10566;DHT22;5331;48.148;16.326;2023-07-31T15:36:02;29.00;1.00
10566;DHT22;5331;48.148;16.326;2023-07-31T15:38:29;29.10;1.00
10566;DHT22;5331;48.148;16.326;2023-07-31T15:40:55;29.10;1.00
10566;DHT22;5331;48.148;16.326;2023-07-31T15:43:22;28.80;1.00
10566;DHT22;5331;48.148;16.326;2023-07-31T15:45:49;28.60;1.00
10566;DHT22;5331;48.148;16.326;2023-07-31T15:48:16;28.60;1.00